Time;durP1;ratioP1;P1;durP2;ratioP2;P2;SDS_P1;SDS_P2;PMS_P1;PMS_P2;Temp;Humidity;BMP_temperature;BMP_pressure;BME280_temperature;BME280_humidity;BME280_pressure;Samples;Min_cycle;Max_cycle;Signal;HPM_P1;HPM_P2
2022/10/02 00:02:28;;;;;;;1.88;0.68;;;20.80;77.20;;;;;;5146009;27;45363;-71
2022/10/02 00:05:00;;;;;;;2.60;0.77;;;20.80;77.30;;;;;;5142890;27;45610;-71
2022/10/02 00:07:34;;;;;;;1.58;0.82;;;20.80;77.20;;;;;;5146002;27;45504;-70
2022/10/02 00:10:05;;;;;;;0.95;0.50;;;20.80;77.20;;;;;;5144172;27;45407;-70
2022/10/02 00:12:36;;;;;;;1.25;0.52;;;20.80;77.20;;;;;;5146432;27;45475;-71
2022/10/02 00:15:13;;;;;;;1.83;0.60;;;20.80;77.30;;;;;;5142616;27;46278;-71
2022/10/02 00:17:43;;;;;;;2.53;0.68;;;20.80;77.20;;;;;;5143824;27;45686;-71
2022/10/02 00:20:14;;;;;;;1.27;0.57;;;20.80;77.30;;;;;;5145676;27;45339;-70
2022/10/02 00:22:50;;;;;;;1.58;0.70;;;20.80;77.30;;;;;;5145380;27;45535;-70
2022/10/02 00:25:24;;;;;;;1.40;0.70;;;20.80;77.30;;;;;;5139964;27;46071;-70
2022/10/02 00:28:02;;;;;;;1.85;0.82;;;20.80;77.40;;;;;;5145930;27;45451;-70
2022/10/02 00:30:41;;;;;;;2.30;0.70;;;20.80;77.30;;;;;;5144016;27;45413;-70
2022/10/02 00:33:16;;;;;;;2.15;0.80;;;20.80;77.30;;;;;;5145788;27;45440;-70
2022/10/02 00:35:55;;;;;;;1.77;0.70;;;20.80;77.40;;;;;;5143591;27;46405;-71
2022/10/02 00:38:35;;;;;;;1.85;0.80;;;20.80;77.40;;;;;;5144081;27;45403;-70
2022/10/02 00:41:16;;;;;;;2.03;0.70;;;20.80;77.40;;;;;;5143412;27;45386;-70
2022/10/02 00:43:52;;;;;;;3.72;0.95;;;20.80;77.50;;;;;;5144102;27;45472;-71
2022/10/02 00:46:35;;;;;;;1.42;0.60;;;20.80;77.50;;;;;;5143277;27;45400;-71
2022/10/02 00:49:17;;;;;;;1.85;0.60;;;20.80;77.50;;;;;;5143574;27;45528;-71
2022/10/02 00:51:56;;;;;;;0.90;0.68;;;20.80;77.50;;;;;;5142422;27;45444;-70
2022/10/02 00:54:48;;;;;;;1.33;0.68;;;20.80;77.60;;;;;;5144420;27;45328;-70
2022/10/02 00:57:27;;;;;;;1.73;0.50;;;20.80;77.60;;;;;;5132678;27;47183;-71
2022/10/02 01:00:03;;;;;;;2.25;0.77;;;20.80;77.60;;;;;;5146144;27;45585;-70
2022/10/02 01:03:06;;;;;;;2.78;0.60;;;20.80;77.70;;;;;;5147016;27;45316;-70
2022/10/02 01:05:34;;;;;;;1.85;0.70;;;20.80;77.70;;;;;;5111030;27;45321;-71
2022/10/02 01:08:02;;;;;;;1.15;0.50;;;20.80;77.70;;;;;;5123894;27;45344;-71
2022/10/02 01:10:29;;;;;;;2.00;0.40;;;20.80;77.70;;;;;;5125887;27;45452;-70
2022/10/02 01:12:58;;;;;;;2.05;0.60;;;20.80;77.70;;;;;;5126108;27;45391;-70
2022/10/02 01:15:30;;;;;;;1.80;0.60;;;20.80;77.70;;;;;;5125793;27;45500;-70
2022/10/02 01:17:57;;;;;;;1.98;0.68;;;20.80;77.70;;;;;;5134934;27;46510;-71
2022/10/02 01:20:35;;;;;;;2.17;0.88;;;20.80;77.60;;;;;;5146075;27;45275;-70
2022/10/02 01:23:10;;;;;;;1.48;0.70;;;20.80;77.70;;;;;;5146540;27;45470;-71
2022/10/02 01:25:39;;;;;;;1.42;0.68;;;20.80;77.70;;;;;;5145796;27;45486;-70
2022/10/02 01:28:06;;;;;;;1.58;0.60;;;20.80;77.70;;;;;;5145860;27;47637;-72
2022/10/02 01:30:35;;;;;;;3.03;0.82;;;20.80;77.70;;;;;;5141715;27;45815;-70
2022/10/02 01:33:04;;;;;;;1.30;0.65;;;20.80;77.70;;;;;;5125683;27;45309;-70
2022/10/02 01:35:34;;;;;;;1.42;0.60;;;20.80;77.70;;;;;;5124950;27;45509;-70
2022/10/02 01:38:05;;;;;;;1.95;0.77;;;20.80;77.80;;;;;;5125263;27;48053;-70
2022/10/02 01:40:34;;;;;;;2.35;0.90;;;20.80;77.80;;;;;;5125369;27;45365;-71
2022/10/02 01:43:05;;;;;;;1.48;0.60;;;20.80;77.80;;;;;;5133073;27;45367;-71
2022/10/02 01:45:44;;;;;;;2.05;0.60;;;20.80;77.90;;;;;;5137286;27;45285;-70
2022/10/02 01:48:18;;;;;;;1.65;0.60;;;20.80;77.90;;;;;;5134623;27;45500;-70
2022/10/02 01:50:57;;;;;;;1.42;0.70;;;20.80;77.90;;;;;;5144476;27;45554;-71
2022/10/02 01:53:32;;;;;;;5.22;0.93;;;20.80;77.90;;;;;;5145069;27;45270;-71
2022/10/02 01:56:10;;;;;;;2.25;0.80;;;20.80;78.00;;;;;;5145459;27;45303;-71
2022/10/02 01:58:49;;;;;;;1.70;0.82;;;20.80;78.00;;;;;;5145186;27;45385;-71
2022/10/02 02:01:29;;;;;;;2.00;0.80;;;20.80;78.00;;;;;;5145872;27;45377;-71
2022/10/02 02:04:03;;;;;;;1.25;0.47;;;20.80;78.00;;;;;;5145745;27;45334;-70
2022/10/02 02:06:35;;;;;;;0.75;0.50;;;20.80;78.00;;;;;;5122687;27;45348;-71
2022/10/02 02:09:10;;;;;;;2.30;0.85;;;20.80;78.00;;;;;;5135630;27;48389;-70
2022/10/02 02:11:44;;;;;;;2.03;0.90;;;20.80;78.00;;;;;;5145308;27;45312;-71
2022/10/02 02:14:18;;;;;;;1.15;0.57;;;20.80;78.00;;;;;;5141925;27;45323;-71
2022/10/02 02:16:49;;;;;;;2.75;0.80;;;20.80;78.00;;;;;;5143730;27;45370;-71
2022/10/02 02:19:21;;;;;;;1.00;0.50;;;20.80;78.00;;;;;;5145215;27;48042;-71
2022/10/02 02:21:54;;;;;;;1.35;0.60;;;20.80;78.10;;;;;;5144952;27;45284;-70
2022/10/02 02:24:25;;;;;;;2.78;0.80;;;20.80;78.10;;;;;;5145574;27;45590;-70
2022/10/02 02:26:57;;;;;;;2.60;0.80;;;20.80;78.10;;;;;;5145016;27;45297;-71
2022/10/02 02:29:29;;;;;;;2.70;0.85;;;20.80;78.10;;;;;;5145504;27;47716;-70
2022/10/02 02:31:59;;;;;;;1.42;0.60;;;20.80;78.10;;;;;;5145265;27;45280;-70
2022/10/02 02:34:31;;;;;;;2.25;0.65;;;20.80;78.10;;;;;;5145502;27;45320;-70
2022/10/02 02:37:02;;;;;;;4.03;0.80;;;20.80;78.10;;;;;;5144136;27;45324;-70
2022/10/02 02:39:37;;;;;;;1.38;0.63;;;20.80;78.30;;;;;;5144397;27;46555;-71
2022/10/02 02:42:08;;;;;;;1.30;0.70;;;20.80;78.30;;;;;;5142466;27;45346;-70
2022/10/02 02:44:41;;;;;;;1.65;0.73;;;20.80;78.20;;;;;;5145144;27;45394;-70
2022/10/02 02:47:13;;;;;;;1.95;0.63;;;20.80;78.30;;;;;;5144888;27;45280;-70
2022/10/02 02:49:50;;;;;;;2.20;0.68;;;20.80;78.30;;;;;;5145180;27;47085;-70
2022/10/02 02:52:21;;;;;;;1.85;0.68;;;20.80;78.40;;;;;;5143591;27;45649;-70
2022/10/02 02:54:52;;;;;;;1.58;0.50;;;20.80;78.40;;;;;;5145327;27;45404;-70
2022/10/02 02:57:24;;;;;;;1.80;0.70;;;20.80;78.50;;;;;;5144329;27;45294;-70
2022/10/02 02:59:55;;;;;;;0.75;0.43;;;20.80;78.40;;;;;;5144653;27;48681;-70
2022/10/02 03:02:21;;;;;;;2.47;0.70;;;20.80;78.40;;;;;;5144682;27;45332;-70
2022/10/02 03:04:48;;;;;;;2.55;0.52;;;20.80;78.40;;;;;;5137249;27;45338;-71
2022/10/02 03:07:17;;;;;;;2.67;0.60;;;20.80;78.40;;;;;;5124970;27;45634;-70
2022/10/02 03:09:53;;;;;;;1.95;1.00;;;20.80;78.50;;;;;;5145097;27;47709;-71
2022/10/02 03:12:32;;;;;;;1.65;0.50;;;20.80;78.50;;;;;;5141695;27;45375;-70
2022/10/02 03:15:15;;;;;;;1.27;0.40;;;20.80;78.50;;;;;;5123569;27;45237;-70
2022/10/02 03:17:55;;;;;;;2.50;0.63;;;20.80;78.50;;;;;;5123864;27;45272;-71
2022/10/02 03:20:30;;;;;;;5.10;1.13;;;20.80;78.60;;;;;;5123565;27;45367;-70
2022/10/02 03:23:05;;;;;;;2.78;0.60;;;20.80;78.70;;;;;;5123849;27;45284;-70
2022/10/02 03:25:38;;;;;;;1.33;0.55;;;20.80;78.50;;;;;;5123266;27;45449;-70
2022/10/02 03:28:10;;;;;;;1.27;0.60;;;20.80;78.60;;;;;;5124021;27;45410;-70
2022/10/02 03:30:39;;;;;;;0.68;0.60;;;20.80;78.70;;;;;;5121285;27;45349;-71
2022/10/02 03:33:10;;;;;;;1.83;0.70;;;20.80;78.60;;;;;;5123108;27;45302;-71
2022/10/02 03:35:38;;;;;;;1.15;0.50;;;20.80;78.80;;;;;;5123398;27;45509;-71
2022/10/02 03:38:06;;;;;;;1.50;0.60;;;20.80;79.50;;;;;;5123465;27;45401;-70
2022/10/02 03:40:34;;;;;;;2.08;0.77;;;20.80;78.80;;;;;;5123725;27;45303;-70
2022/10/02 03:43:01;;;;;;;1.70;0.50;;;20.80;78.90;;;;;;5127143;27;45434;-70
2022/10/02 03:45:29;;;;;;;1.55;0.63;;;20.80;78.90;;;;;;5138159;27;45629;-71
2022/10/02 03:47:57;;;;;;;2.50;0.80;;;20.80;78.90;;;;;;5136353;27;45256;-71
2022/10/02 03:50:24;;;;;;;1.55;0.60;;;20.80;78.90;;;;;;5143451;27;46286;-70
2022/10/02 03:52:52;;;;;;;1.33;0.40;;;20.80;78.90;;;;;;5143417;27;45354;-70
2022/10/02 03:55:31;;;;;;;1.35;0.50;;;20.80;78.90;;;;;;5143369;27;45455;-71
2022/10/02 03:57:59;;;;;;;1.42;0.50;;;20.80;78.90;;;;;;5144735;27;45524;-71
2022/10/02 04:00:32;;;;;;;2.25;0.63;;;20.80;78.90;;;;;;5143615;27;48274;-71
2022/10/02 04:03:04;;;;;;;1.63;0.60;;;20.80;78.90;;;;;;5144057;27;45715;-70
2022/10/02 04:05:38;;;;;;;3.28;0.70;;;20.80;78.90;;;;;;5134883;27;45269;-70
2022/10/02 04:08:12;;;;;;;2.28;0.60;;;20.80;78.90;;;;;;5139341;27;45474;-70
2022/10/02 04:10:46;;;;;;;2.33;0.60;;;20.80;78.90;;;;;;5143944;27;46615;-71
2022/10/02 04:13:19;;;;;;;1.75;0.68;;;20.80;78.90;;;;;;5143995;27;45358;-71
2022/10/02 04:15:55;;;;;;;1.67;0.70;;;20.80;78.90;;;;;;5143279;27;45315;-70
2022/10/02 04:18:27;;;;;;;1.77;0.50;;;20.80;78.90;;;;;;5143528;27;45474;-70
2022/10/02 04:20:58;;;;;;;1.92;0.70;;;20.80;78.90;;;;;;5136614;27;45316;-70
2022/10/02 04:23:29;;;;;;;0.80;0.45;;;20.80;78.90;;;;;;5123172;27;45581;-70
2022/10/02 04:26:03;;;;;;;2.22;0.50;;;20.80;78.90;;;;;;5124228;27;45473;-71
2022/10/02 04:28:38;;;;;;;1.80;0.60;;;20.80;78.90;;;;;;5126869;27;45406;-70
2022/10/02 04:31:11;;;;;;;2.72;0.63;;;20.80;78.90;;;;;;5126303;27;47104;-70
2022/10/02 04:33:40;;;;;;;0.95;0.60;;;20.80;78.90;;;;;;5126438;27;45483;-71
2022/10/02 04:36:19;;;;;;;2.63;0.57;;;20.80;78.90;;;;;;5125655;27;45370;-70
2022/10/02 04:39:03;;;;;;;1.52;0.45;;;20.80;78.90;;;;;;5127357;27;45420;-70
2022/10/02 04:41:46;;;;;;;1.38;0.63;;;20.80;78.90;;;;;;5126023;27;46302;-71
2022/10/02 04:44:29;;;;;;;1.77;0.45;;;20.80;78.90;;;;;;5136696;27;45387;-71
2022/10/02 04:47:22;;;;;;;0.90;0.45;;;20.80;78.90;;;;;;5145996;27;45716;-71
2022/10/02 04:50:02;;;;;;;2.10;0.75;;;20.80;78.90;;;;;;5141704;27;45408;-71
2022/10/02 04:52:45;;;;;;;3.70;0.70;;;20.80;78.90;;;;;;5146274;27;47048;-71
2022/10/02 04:55:30;;;;;;;2.50;0.68;;;20.80;78.90;;;;;;5137025;27;45654;-70
2022/10/02 04:58:21;;;;;;;2.15;0.60;;;20.80;78.90;;;;;;5125893;27;45343;-70
2022/10/02 05:00:53;;;;;;;0.70;0.35;;;20.80;78.90;;;;;;5126039;27;45629;-70
2022/10/02 05:03:35;;;;;;;0.55;0.30;;;20.80;78.90;;;;;;5136057;27;48608;-70
2022/10/02 05:06:18;;;;;;;1.92;0.60;;;20.80;78.90;;;;;;5144837;27;45330;-71
2022/10/02 05:08:56;;;;;;;1.20;0.47;;;20.80;80.00;;;;;;5143950;27;45485;-70
2022/10/02 05:12:01;;;;;;;1.00;0.50;;;20.80;78.90;;;;;;5152868;27;45331;-71
2022/10/02 05:14:45;;;;;;;1.23;0.60;;;20.80;78.90;;;;;;5121040;27;47935;-70
2022/10/02 05:17:24;;;;;;;1.13;0.40;;;20.70;78.90;;;;;;5141360;27;45377;-70
2022/10/02 05:20:09;;;;;;;1.60;0.60;;;20.70;78.90;;;;;;5141584;27;45387;-71
2022/10/02 05:22:52;;;;;;;1.38;0.60;;;20.80;78.90;;;;;;5139345;27;45315;-71
2022/10/02 05:25:43;;;;;;;2.25;0.70;;;20.70;78.80;;;;;;5140937;27;45275;-70
2022/10/02 05:28:42;;;;;;;1.52;0.60;;;20.70;78.80;;;;;;5142286;27;45350;-70
2022/10/02 05:31:18;;;;;;;1.50;0.47;;;20.80;78.90;;;;;;5146525;27;45253;-70
2022/10/02 05:33:58;;;;;;;0.75;0.40;;;20.70;78.90;;;;;;5138850;27;45517;-70
2022/10/02 05:36:44;;;;;;;1.15;0.50;;;20.80;78.90;;;;;;5123979;27;46279;-70
2022/10/02 05:39:18;;;;;;;2.00;0.50;;;20.80;78.90;;;;;;5145817;27;45347;-70
2022/10/02 05:41:53;;;;;;;4.05;0.65;;;20.80;78.90;;;;;;5141624;27;45351;-70
2022/10/02 05:44:25;;;;;;;1.50;0.60;;;20.80;78.90;;;;;;5138725;27;45288;-70
2022/10/02 05:47:00;;;;;;;2.20;0.63;;;20.80;78.90;;;;;;5134365;27;45622;-70
2022/10/02 05:49:34;;;;;;;2.15;0.57;;;20.80;78.90;;;;;;5138446;27;45282;-70
2022/10/02 05:52:03;;;;;;;2.05;0.52;;;20.80;78.90;;;;;;5129683;27;45315;-70
2022/10/02 05:54:39;;;;;;;0.55;0.40;;;20.80;78.90;;;;;;5141305;27;45281;-70
2022/10/02 05:57:14;;;;;;;0.85;0.30;;;20.80;78.90;;;;;;5127731;27;48272;-71
2022/10/02 05:59:46;;;;;;;3.10;0.73;;;20.80;78.90;;;;;;5121965;27;45406;-70
2022/10/02 06:02:20;;;;;;;2.10;0.60;;;20.80;78.90;;;;;;5125004;27;45379;-70
2022/10/02 06:04:57;;;;;;;0.80;0.50;;;20.80;78.90;;;;;;5134337;27;45440;-71
2022/10/02 06:07:26;;;;;;;1.65;0.65;;;20.80;78.90;;;;;;5143613;27;47244;-69
2022/10/02 06:10:01;;;;;;;1.30;0.60;;;20.80;78.90;;;;;;5125736;27;45335;-69
2022/10/02 06:12:33;;;;;;;0.93;0.50;;;20.80;79.20;;;;;;5125365;27;45409;-70
2022/10/02 06:15:05;;;;;;;1.02;0.40;;;20.80;79.20;;;;;;5131427;27;45336;-70
2022/10/02 06:17:36;;;;;;;0.73;0.43;;;20.80;78.90;;;;;;5137095;27;46146;-69
2022/10/02 06:20:12;;;;;;;1.08;0.55;;;20.80;79.10;;;;;;5126091;27;45415;-69
2022/10/02 06:22:44;;;;;;;3.47;0.63;;;20.80;80.00;;;;;;5138812;27;45339;-69
2022/10/02 06:25:19;;;;;;;1.92;0.70;;;20.80;79.30;;;;;;5131169;27;45264;-69
2022/10/02 06:27:51;;;;;;;1.40;0.73;;;20.80;79.40;;;;;;5135636;27;48072;-69
2022/10/02 06:30:20;;;;;;;0.70;0.30;;;20.80;79.40;;;;;;5142268;27;45686;-69
2022/10/02 06:32:53;;;;;;;1.20;0.50;;;20.80;79.30;;;;;;5134548;27;45421;-69
2022/10/02 06:35:37;;;;;;;1.58;0.50;;;20.80;79.30;;;;;;5133803;27;45511;-70
2022/10/02 06:38:17;;;;;;;1.08;0.32;;;20.80;79.40;;;;;;5142189;27;47051;-69
2022/10/02 06:40:51;;;;;;;2.00;0.50;;;20.80;79.40;;;;;;5145092;27;45272;-69
2022/10/02 06:43:29;;;;;;;2.60;0.55;;;20.80;79.40;;;;;;5141429;27;45473;-69
2022/10/02 06:46:07;;;;;;;0.98;0.40;;;20.80;79.40;;;;;;5143787;27;45419;-69
2022/10/02 06:48:39;;;;;;;1.20;0.43;;;20.80;79.40;;;;;;5144306;27;45245;-69
2022/10/02 06:51:11;;;;;;;1.02;0.40;;;20.80;79.40;;;;;;5144723;27;45981;-69
2022/10/02 06:53:50;;;;;;;2.50;0.57;;;20.80;79.40;;;;;;5139840;27;45448;-69
2022/10/02 06:56:33;;;;;;;1.38;0.45;;;20.80;79.30;;;;;;5124023;27;45334;-70
2022/10/02 06:59:11;;;;;;;1.42;0.50;;;20.80;79.30;;;;;;5124384;27;45697;-69
2022/10/02 07:01:52;;;;;;;0.57;0.40;;;20.80;79.20;;;;;;5124018;27;45276;-70
2022/10/02 07:04:33;;;;;;;1.20;0.47;;;20.80;79.20;;;;;;5142621;27;45360;-69
2022/10/02 07:07:19;;;;;;;0.73;0.40;;;20.80;79.00;;;;;;5136473;27;45343;-69
2022/10/02 07:09:59;;;;;;;2.60;0.50;;;20.80;79.20;;;;;;5144935;27;45409;-70
2022/10/02 07:12:46;;;;;;;1.05;0.50;;;20.80;79.20;;;;;;5144337;27;45448;-69
2022/10/02 07:15:42;;;;;;;1.48;0.50;;;20.80;79.20;;;;;;5145319;27;45204;-69
2022/10/02 07:18:20;;;;;;;1.67;0.55;;;20.80;79.20;;;;;;5144670;27;45479;-70
2022/10/02 07:20:58;;;;;;;1.75;0.50;;;20.90;79.20;;;;;;5144806;27;46279;-70
2022/10/02 07:23:40;;;;;;;1.25;0.50;;;20.90;79.20;;;;;;5144634;27;45279;-69
2022/10/02 07:26:25;;;;;;;1.67;0.35;;;20.90;79.30;;;;;;5143871;27;45330;-70
2022/10/02 07:29:03;;;;;;;1.15;0.50;;;20.90;79.30;;;;;;5128767;27;45300;-70
2022/10/02 07:31:44;;;;;;;0.82;0.35;;;20.90;79.10;;;;;;5123684;27;45476;-69
2022/10/02 07:34:21;;;;;;;1.50;0.32;;;20.90;79.10;;;;;;5123678;27;46152;-69
2022/10/02 07:36:58;;;;;;;1.63;0.57;;;20.90;79.20;;;;;;5122636;27;45364;-69
2022/10/02 07:39:43;;;;;;;0.60;0.30;;;20.90;79.20;;;;;;5124073;27;45249;-70
2022/10/02 07:42:26;;;;;;;0.45;0.38;;;20.90;79.30;;;;;;5132539;27;45492;-70
2022/10/02 07:45:22;;;;;;;0.85;0.40;;;20.90;79.30;;;;;;5143535;27;45300;-70
2022/10/02 07:48:12;;;;;;;1.58;0.40;;;20.90;79.30;;;;;;5143629;27;45455;-70
2022/10/02 07:50:49;;;;;;;1.08;0.38;;;20.90;79.20;;;;;;5144269;27;45548;-70
2022/10/02 07:53:24;;;;;;;1.45;0.50;;;20.90;79.40;;;;;;5144037;27;48353;-70
2022/10/02 07:55:53;;;;;;;0.95;0.55;;;20.90;79.40;;;;;;5143896;27;45362;-69
2022/10/02 07:58:32;;;;;;;1.10;0.40;;;20.90;79.30;;;;;;5144515;27;45263;-69
2022/10/02 08:01:03;;;;;;;0.82;0.35;;;20.90;79.40;;;;;;5146960;27;45504;-70
2022/10/02 08:03:34;;;;;;;2.50;0.47;;;20.80;79.20;;;;;;5126746;27;47065;-69
2022/10/02 08:06:02;;;;;;;0.80;0.38;;;20.90;79.40;;;;;;5147340;27;45474;-69
2022/10/02 08:08:37;;;;;;;1.20;0.40;;;20.80;79.20;;;;;;5147341;27;45236;-70
2022/10/02 08:11:10;;;;;;;2.08;0.63;;;20.80;79.20;;;;;;5147489;27;45358;-69
2022/10/02 08:13:43;;;;;;;0.50;0.40;;;20.90;79.40;;;;;;5147896;27;45479;-70
2022/10/02 08:16:14;;;;;;;1.15;0.40;;;20.80;79.20;;;;;;5147013;27;45470;-70
2022/10/02 08:18:45;;;;;;;0.30;0.30;;;20.80;79.20;;;;;;5147048;27;45484;-69
2022/10/02 08:21:15;;;;;;;2.05;0.40;;;20.90;79.20;;;;;;5147541;27;45375;-70
2022/10/02 08:23:48;;;;;;;1.33;0.30;;;20.80;79.20;;;;;;5147507;27;48468;-69
2022/10/02 08:26:20;;;;;;;1.52;0.50;;;20.90;79.10;;;;;;5146896;27;45288;-70
2022/10/02 08:28:53;;;;;;;1.10;0.40;;;20.90;79.10;;;;;;5147518;27;45366;-69
2022/10/02 08:31:23;;;;;;;1.15;0.30;;;20.90;79.30;;;;;;5147117;27;45633;-70
2022/10/02 08:33:50;;;;;;;2.50;0.40;;;20.90;79.30;;;;;;5147225;27;48292;-69
2022/10/02 08:36:45;;;;;;;0.35;0.30;;;20.90;79.20;;;;;;5140719;27;45360;-69
2022/10/02 08:39:35;;;;;;;0.73;0.30;;;20.90;79.20;;;;;;5123888;27;45308;-69
2022/10/02 08:42:44;;;;;;;0.52;0.30;;;20.80;79.10;;;;;;5126723;27;45352;-70
2022/10/02 08:46:01;;;;;;;0.52;0.32;;;20.90;80.30;;;;;;5126251;27;48277;-70
2022/10/02 08:49:05;;;;;;;1.58;0.40;;;20.80;79.20;;;;;;5126382;27;46034;-70
2022/10/02 08:52:09;;;;;;;0.20;0.20;;;20.80;79.20;;;;;;5126232;27;45335;-69
2022/10/02 08:55:02;;;;;;;0.57;0.40;;;20.80;79.30;;;;;;5126520;27;45581;-70
2022/10/02 08:57:57;;;;;;;0.60;0.30;;;20.80;79.20;;;;;;5125857;27;45485;-69
2022/10/02 09:00:30;;;;;;;1.15;0.40;;;20.80;79.20;;;;;;5126063;27;45315;-69
2022/10/02 09:03:37;;;;;;;0.95;0.40;;;20.80;79.20;;;;;;5126394;27;45313;-70
2022/10/02 09:06:47;;;;;;;1.27;0.47;;;20.90;79.20;;;;;;5125120;27;45448;-69
2022/10/02 09:09:37;;;;;;;0.57;0.30;;;20.90;79.30;;;;;;5126510;27;46299;-70
2022/10/02 09:12:36;;;;;;;0.57;0.30;;;20.90;79.20;;;;;;5125243;27;45395;-69
2022/10/02 09:15:15;;;;;;;0.82;0.28;;;20.90;79.40;;;;;;5126190;27;45531;-70
2022/10/02 09:17:48;;;;;;;0.70;0.30;;;20.90;79.40;;;;;;5125105;27;45649;-70
2022/10/02 09:20:49;;;;;;;0.98;0.38;;;20.90;79.30;;;;;;5125705;27;47485;-69
2022/10/02 09:23:46;;;;;;;0.88;0.32;;;20.90;79.40;;;;;;5125851;27;45333;-70
2022/10/02 09:26:23;;;;;;;1.23;0.40;;;20.90;79.40;;;;;;5126640;27;45316;-69
2022/10/02 09:29:18;;;;;;;1.48;0.75;;;20.80;79.40;;;;;;5145923;27;45562;-70
2022/10/02 09:32:17;;;;;;;0.77;0.38;;;20.80;79.40;;;;;;5137688;27;47492;-69
2022/10/02 09:35:23;;;;;;;1.65;0.40;;;20.80;79.60;;;;;;5130021;27;45396;-70
2022/10/02 09:38:34;;;;;;;0.52;0.17;;;20.80;79.70;;;;;;5139493;27;45410;-70
2022/10/02 09:41:48;;;;;;;1.17;0.20;;;20.80;79.70;;;;;;5137097;27;45483;-69
2022/10/02 09:44:36;;;;;;;1.48;0.50;;;20.80;79.70;;;;;;5136761;27;45494;-69
2022/10/02 09:47:25;;;;;;;1.10;0.38;;;20.80;79.80;;;;;;5136832;27;45403;-69
2022/10/02 09:50:17;;;;;;;2.03;0.65;;;20.80;79.80;;;;;;5134317;27;45493;-68
2022/10/02 09:53:19;;;;;;;0.50;0.35;;;20.80;79.80;;;;;;5140913;27;45452;-69
2022/10/02 09:56:19;;;;;;;1.35;0.40;;;20.80;79.80;;;;;;5093055;27;46533;-69
2022/10/02 09:59:20;;;;;;;1.15;0.40;;;20.80;79.80;;;;;;5139190;27;45398;-69
2022/10/02 10:02:17;;;;;;;0.85;0.20;;;20.80;79.80;;;;;;5131080;27;45353;-69
2022/10/02 10:05:25;;;;;;;0.75;0.20;;;20.80;79.80;;;;;;5138447;27;45375;-69
2022/10/02 10:08:24;;;;;;;0.85;0.40;;;20.80;79.90;;;;;;5143426;27;47734;-70
2022/10/02 10:11:28;;;;;;;0.40;0.25;;;20.80;79.80;;;;;;5136264;27;45461;-69
2022/10/02 10:14:20;;;;;;;0.40;0.25;;;20.80;79.80;;;;;;5096632;27;45287;-69
2022/10/02 10:17:29;;;;;;;1.67;0.40;;;20.80;79.80;;;;;;5135272;27;45302;-69
2022/10/02 10:20:27;;;;;;;0.55;0.32;;;20.80;79.90;;;;;;5125103;27;47646;-69
2022/10/02 10:23:21;;;;;;;0.55;0.30;;;20.80;79.80;;;;;;5138179;27;45500;-69
2022/10/02 10:26:09;;;;;;;0.68;0.30;;;20.80;79.80;;;;;;5135429;27;45401;-69
2022/10/02 10:29:07;;;;;;;0.47;0.28;;;20.80;79.90;;;;;;5138452;27;45534;-69
2022/10/02 10:32:08;;;;;;;0.90;0.30;;;20.80;80.00;;;;;;5139036;27;46443;-69
2022/10/02 10:35:24;;;;;;;0.95;0.40;;;20.80;80.00;;;;;;5136186;27;45437;-69
2022/10/02 10:38:31;;;;;;;0.38;0.25;;;20.80;79.90;;;;;;5077605;27;45376;-70
2022/10/02 10:41:34;;;;;;;1.00;0.40;;;20.80;80.00;;;;;;5141383;27;45260;-69
2022/10/02 10:44:20;;;;;;;0.75;0.30;;;20.80;80.00;;;;;;5125399;27;46334;-70
2022/10/02 10:47:21;;;;;;;1.25;0.60;;;20.80;80.00;;;;;;5134356;27;45692;-69
2022/10/02 10:50:05;;;;;;;0.52;0.28;;;20.80;80.00;;;;;;5134994;27;45264;-69
2022/10/02 10:53:03;;;;;;;0.68;0.30;;;20.80;80.10;;;;;;5136042;27;45378;-70
2022/10/02 10:55:45;;;;;;;0.57;0.28;;;20.80;80.00;;;;;;5140731;27;46455;-70
2022/10/02 10:58:20;;;;;;;0.50;0.20;;;20.80;79.90;;;;;;5134331;27;45359;-69
2022/10/02 11:01:02;;;;;;;0.75;0.32;;;20.90;80.00;;;;;;5140087;27;45327;-69
2022/10/02 11:03:58;;;;;;;1.92;0.30;;;20.90;80.00;;;;;;5134560;27;45413;-69
2022/10/02 11:07:02;;;;;;;2.10;0.30;;;20.90;79.90;;;;;;5138595;27;47197;-69
2022/10/02 11:10:18;;;;;;;0.52;0.30;;;20.90;79.90;;;;;;5137929;27;45783;-69
2022/10/02 11:13:02;;;;;;;0.63;0.40;;;20.90;79.80;;;;;;5111388;27;45376;-69
2022/10/02 11:15:58;;;;;;;1.52;0.60;;;20.90;79.90;;;;;;5136192;27;45646;-69
2022/10/02 11:18:47;;;;;;;0.90;0.35;;;20.90;79.90;;;;;;5142483;27;45470;-69
2022/10/02 11:21:34;;;;;;;0.90;0.20;;;20.90;79.80;;;;;;5139895;27;45595;-69
2022/10/02 11:24:26;;;;;;;1.65;0.40;;;20.90;80.80;;;;;;5130042;27;45365;-69
2022/10/02 11:27:12;;;;;;;1.08;0.40;;;20.90;79.80;;;;;;5141845;27;45612;-70
2022/10/02 11:30:05;;;;;;;0.88;0.25;;;20.90;79.90;;;;;;5141547;27;45424;-69
2022/10/02 11:32:49;;;;;;;0.50;0.22;;;20.90;79.90;;;;;;5140262;27;45457;-69
2022/10/02 11:35:23;;;;;;;1.25;0.40;;;20.90;80.00;;;;;;5146484;27;45486;-70
2022/10/02 11:38:37;;;;;;;0.77;0.57;;;20.90;80.10;;;;;;5144978;27;45308;-70
2022/10/02 11:41:21;;;;;;;1.27;0.40;;;20.90;80.10;;;;;;5122351;27;45633;-70
2022/10/02 11:44:01;;;;;;;0.65;0.30;;;20.80;79.90;;;;;;5135702;27;45489;-69
2022/10/02 11:46:48;;;;;;;0.55;0.35;;;20.80;80.00;;;;;;5135394;27;45331;-70
2022/10/02 11:49:34;;;;;;;0.45;0.40;;;20.80;80.00;;;;;;5146196;27;45370;-70
2022/10/02 11:52:29;;;;;;;1.17;0.30;;;20.80;80.00;;;;;;5142131;27;47377;-69
2022/10/02 11:55:07;;;;;;;0.68;0.40;;;20.90;80.20;;;;;;5141721;27;45811;-69
2022/10/02 11:57:46;;;;;;;0.52;0.30;;;20.80;80.00;;;;;;5133243;27;45390;-69
2022/10/02 12:00:51;;;;;;;1.70;0.45;;;20.80;80.00;;;;;;5143064;27;45401;-69
2022/10/02 12:03:28;;;;;;;1.10;0.40;;;20.80;80.10;;;;;;5145226;27;46074;-69
2022/10/02 12:06:01;;;;;;;1.00;0.47;;;20.80;80.10;;;;;;5134091;27;45373;-69
2022/10/02 12:08:45;;;;;;;0.63;0.40;;;20.80;80.10;;;;;;5145669;27;45568;-69
2022/10/02 12:11:20;;;;;;;0.60;0.30;;;20.90;80.10;;;;;;5139462;27;45394;-69
2022/10/02 12:14:00;;;;;;;0.52;0.30;;;20.90;80.20;;;;;;5147519;27;45417;-69
2022/10/02 12:16:47;;;;;;;0.95;0.40;;;20.90;80.20;;;;;;5138819;27;45520;-70
2022/10/02 12:19:33;;;;;;;1.30;0.50;;;20.90;80.20;;;;;;5144847;27;45478;-70
2022/10/02 12:28:05;;;;;;;0.95;0.40;;;20.90;80.10;;;;;;5141074;27;45408;-69
2022/10/02 12:30:39;;;;;;;0.55;0.40;;;20.90;80.10;;;;;;5137168;27;45380;-69
2022/10/02 12:33:33;;;;;;;0.75;0.35;;;20.90;80.00;;;;;;5145659;27;45487;-70
2022/10/02 12:36:23;;;;;;;0.98;0.47;;;20.90;79.80;;;;;;5134118;27;46352;-70
2022/10/02 12:39:04;;;;;;;1.00;0.40;;;20.80;79.80;;;;;;5139217;27;45440;-70
2022/10/02 12:42:01;;;;;;;1.58;0.50;;;20.80;79.80;;;;;;5124456;27;45306;-69
2022/10/02 12:44:43;;;;;;;0.30;0.30;;;20.80;79.80;;;;;;5129615;27;45659;-69
2022/10/02 12:47:37;;;;;;;1.27;0.70;;;20.80;79.80;;;;;;5138084;27;46309;-70
2022/10/02 12:50:18;;;;;;;2.03;0.40;;;20.80;79.60;;;;;;5139799;27;45416;-69
2022/10/02 12:53:18;;;;;;;0.77;0.35;;;20.80;79.60;;;;;;5141066;27;45265;-70
2022/10/02 12:56:09;;;;;;;0.88;0.40;;;20.80;79.60;;;;;;5135651;27;45636;-69
2022/10/02 12:58:48;;;;;;;0.63;0.40;;;20.80;79.60;;;;;;5132200;27;48517;-69
2022/10/02 13:01:48;;;;;;;1.45;0.43;;;20.80;79.40;;;;;;5144087;27;45508;-69
2022/10/02 13:04:40;;;;;;;1.05;0.30;;;20.80;79.40;;;;;;5118937;27;45508;-69
2022/10/02 13:07:43;;;;;;;0.75;0.32;;;20.90;79.40;;;;;;5136413;27;45454;-69
2022/10/02 13:10:17;;;;;;;0.88;0.35;;;20.90;79.30;;;;;;5136531;27;47416;-69
2022/10/02 13:13:02;;;;;;;0.80;0.40;;;20.90;79.10;;;;;;5131964;27;45567;-68
2022/10/02 13:15:37;;;;;;;2.42;0.40;;;20.90;79.00;;;;;;5130598;27;45382;-70
2022/10/02 13:18:33;;;;;;;1.02;0.40;;;20.90;79.30;;;;;;5138973;27;45451;-69
2022/10/02 13:21:12;;;;;;;1.65;0.63;;;20.90;79.10;;;;;;5127458;27;46262;-69
2022/10/02 13:23:48;;;;;;;2.10;0.60;;;20.90;79.00;;;;;;5135590;27;46297;-69
2022/10/02 13:26:25;;;;;;;0.45;0.30;;;20.90;79.10;;;;;;5136306;27;45383;-69
2022/10/02 13:29:23;;;;;;;1.67;0.65;;;20.90;79.10;;;;;;5144061;27;45302;-69
2022/10/02 13:32:06;;;;;;;1.02;0.60;;;20.90;79.00;;;;;;5139590;27;47224;-68
2022/10/02 13:34:49;;;;;;;2.85;0.55;;;20.90;79.00;;;;;;5138169;27;45287;-68
2022/10/02 13:37:26;;;;;;;0.65;0.32;;;20.90;79.10;;;;;;5144898;27;45430;-68
2022/10/02 13:40:16;;;;;;;1.23;0.50;;;20.80;78.90;;;;;;5145476;27;45477;-69
2022/10/02 13:42:57;;;;;;;0.60;0.40;;;20.80;78.90;;;;;;5138453;27;45309;-68
2022/10/02 13:45:33;;;;;;;1.13;0.45;;;20.80;78.90;;;;;;5138380;27;46826;-68
2022/10/02 13:48:07;;;;;;;0.47;0.40;;;20.80;78.90;;;;;;5143282;27;45547;-69
2022/10/02 13:50:46;;;;;;;0.40;0.40;;;20.80;78.90;;;;;;5135275;27;45413;-68
2022/10/02 13:53:34;;;;;;;0.90;0.43;;;20.80;78.90;;;;;;5144039;27;45340;-68
2022/10/02 13:56:10;;;;;;;1.35;0.40;;;20.80;79.00;;;;;;5135914;27;45414;-69
2022/10/02 13:58:48;;;;;;;1.67;0.40;;;20.80;78.90;;;;;;5129976;27;45487;-68
2022/10/02 14:01:34;;;;;;;0.45;0.40;;;20.80;78.90;;;;;;5142068;27;45449;-68
2022/10/02 14:04:19;;;;;;;1.17;0.50;;;20.80;78.90;;;;;;5136353;27;45343;-68
2022/10/02 14:06:50;;;;;;;1.85;0.40;;;20.80;78.90;;;;;;5135793;27;45378;-68